x

9449880 - Friday Harbor, Wa (frdw1) Weather Station

2:36 - Thu 28th May 2015 All times are PDT. -7 hours from GMT.

  • Wind
    2mph, 3mph gusts
  • Sea Temp 51°f
  • Ar Temp 50°f
  • Sea Pressure 1017.8mb
  • 9449880 - Friday Harbor, Wa
  • 9449880 - Friday Harbor, Wa

More Historic Weather Station data

Upgrade to MSW Pro to gain access to the past 30 days of data for over 8000 Wavebouys and Weather Stations around the globe.

Join Pro

Comparision Forecast

View Surf forecast
   
Qui 05/28 2:36 2 3 mph 1017.8mb 51f 50f
2:30 1 2 mph 1017.8mb 51f 50f
2:24 1 3 mph 1017.8mb 51f 50f
2:18 1 2 mph 1017.7mb 51f 50f
2:12 1 2 mph 1017.7mb 51f 50f
2:06 1 2 mph 1017.7mb 50f 50f
2:00 1 2 mph 1017.7mb 50f 50f
1:36  -  1 mph 1017.6mb 51f 51f
1:30 1 2 mph 1017.6mb 51f 51f
1:24 1 2 mph 1017.6mb 51f 51f
1:18 1 2 mph 1017.6mb 51f 51f
1:12  -  2 mph 1017.6mb 51f 51f
1:06 2 3 mph 1017.6mb 51f 51f
1:00 3
mph
1017.5mb 51f 51f
12:36  -  2 mph 1017.4mb 51f 51f
12:30  -  1 mph 1017.4mb 51f 51f
12:24 1 2 mph 1017.4mb 51f 51f
12:18  -  2 mph 1017.3mb 51f 52f
12:12 1 2 mph 1017.3mb 51f 52f
12:06 2 3 mph 1017.2mb 51f 51f
12:00 5 7 mph 1017.2mb 51f 51f
Qua 05/27 11:36 5 6 mph 1017.2mb 51f 52f
11:30 2 5 mph 1017.2mb 51f 52f
11:24 2 6 mph 1017.1mb 51f 52f
11:18 3 7 mph 1017.2mb 51f 53f
11:12 3 6 mph 1017.2mb 51f 53f
11:06 6 7 mph 1017.2mb 51f 53f
11:00 5 7 mph 1017.2mb 51f 54f
10:36 5 6 mph 1017.2mb 51f 55f
10:30 3 5 mph 1017.2mb 51f 55f
10:24 3 5 mph 1017.2mb 51f 55f
10:18 2
mph
1017.2mb 51f 55f
10:12  -  1 mph 1017.2mb 51f 55f
10:06  -  1 mph 1017.2mb 51f 55f
10:00 1
mph
1017.2mb 51f 55f
9:36 2 5 mph 1017mb 52f 56f
9:30 3 6 mph 1016.9mb 52f 57f
9:24 5 6 mph 1016.9mb 52f 57f
9:18 6 7 mph 1016.9mb 52f 58f
9:12 6 7 mph 1016.8mb 52f 58f
9:06 6 7 mph 1016.7mb 52f 58f
9:00 6 7 mph 1016.7mb 52f 58f
8:36 7 8 mph 1016.7mb 52f 59f
8:30 7
mph
1016.7mb 52f 59f
8:24 6 8 mph 1016.7mb 52f 59f
8:18 8 9 mph 1016.7mb 52f 60f
8:12 8 9 mph 1016.7mb 52f 60f
8:06 8
mph
1016.7mb 52f 60f
8:00 6 8 mph 1016.7mb 52f 61f
7:36 7 8 mph 1016.7mb 52f 61f
7:30 6 7 mph 1016.6mb 52f 62f
7:24 7 8 mph 1016.6mb 52f 61f
7:18 6 8 mph 1016.5mb 52f 63f
7:12 8 9 mph 1016.5mb 52f 63f
7:06 7 9 mph 1016.5mb 52f 63f
7:00 7 8 mph 1016.5mb 52f 63f
6:36 8 9 mph 1016.4mb 51f 63f
6:30 8 9 mph 1016.4mb 51f 63f
6:24 9 10 mph 1016.5mb 51f 64f
6:18 8 9 mph 1016.5mb 51f 64f
6:12 6 9 mph 1016.5mb 52f 62f
6:06 3 6 mph 1016.6mb 52f 63f
6:00  -  1 mph 1016.6mb 52f 61f
5:36 2 3 mph 1016.7mb 51f 62f
5:30 2 5 mph 1016.7mb 51f 62f
5:24 3 5 mph 1016.7mb 50f 62f
5:18 2 5 mph 1016.7mb 50f 62f
5:12 2
mph
1016.8mb 50f 62f
5:06 1 2 mph 1016.8mb 50f 62f
5:00 1 2 mph 1016.8mb 50f 63f
4:36  -  3 mph 1016.8mb 50f -
4:30 2 3 mph 1016.8mb 50f -
4:24 3
mph
1016.8mb 50f -
4:18 2 3 mph 1016.8mb 50f -
4:12 3 5 mph 1016.8mb 50f -
4:06 5
mph
1016.9mb 50f -
4:00 3 5 mph 1016.9mb 50f -
1:36 2 3 mph 1018.4mb 50f 57f
1:30 2 3 mph 1018.4mb 50f 56f
1:24 3
mph
1018.4mb 50f 56f
1:18 3
mph
1018.4mb 50f 56f
1:12 2 3 mph 1018.5mb 50f 58f
1:06 3 5 mph 1018.6mb 50f 58f
1:00 3 5 mph 1018.6mb 50f 58f
12:36 5 6 mph 1018.6mb 51f 57f
12:30 3 6 mph 1018.7mb 51f 57f
12:24 5
mph
1018.7mb 51f 58f
12:18 5 6 mph 1018.7mb 51f 58f
12:12 3 5 mph 1018.7mb 51f 59f
12:06  -  2 mph 1018.7mb 51f 59f
12:00 1 3 mph 1018.8mb 51f 57f
11:36 2 3 mph 1018.7mb 51f 54f
11:30 3 5 mph 1018.8mb 51f 54f
11:24 3 5 mph 1018.8mb 51f 54f
11:18 2 3 mph 1018.8mb 51f 54f
11:12 3
mph
1018.8mb 51f 54f
11:06 2 3 mph 1018.8mb 51f 54f
11:00 1 2 mph 1018.8mb 51f 54f
10:36 3 5 mph 1018.7mb 51f 52f
10:30 1 2 mph 1018.8mb 51f 53f
10:24 1 3 mph 1018.7mb 51f 53f
10:18 2 3 mph 1018.7mb 51f 53f
10:12 1 2 mph 1018.7mb 51f 53f
10:06  -  1 mph 1018.7mb 51f 53f
10:00  -  1 mph 1018.7mb 51f 53f
9:36  -  2 mph 1018.7mb 51f 52f
9:30 2 3 mph 1018.8mb 51f 51f
9:24 2 3 mph 1018.8mb 51f 51f
9:18  -  1 mph 1018.8mb 51f 51f
9:12  -  1 mph 1018.9mb 51f 51f
9:06  -  1 mph 1018.9mb 51f 51f
9:00  -  1 mph 1019mb 51f 51f
8:36 2 5 mph 1018.8mb 51f 49f
8:30 2 3 mph 1018.8mb 51f 49f
8:24 2 3 mph 1018.8mb 51f 49f
8:18 2 3 mph 1018.8mb 51f 49f
8:12 3 5 mph 1018.8mb 51f 49f
8:06 2 3 mph 1018.8mb 51f 49f
8:00 1 3 mph 1018.8mb 51f 49f
7:36 3
mph
1018.7mb 51f 49f
7:30 2 3 mph 1018.7mb 51f 49f
7:24 3 5 mph 1018.7mb 51f 49f
7:18 3 6 mph 1018.7mb 51f 49f
7:12 2 5 mph 1018.6mb 51f 49f
7:06 3 5 mph 1018.6mb 51f 49f
7:00 3 5 mph 1018.6mb 51f 49f
6:36 3 5 mph 1018.6mb 51f 48f
6:30 2 6 mph 1018.6mb 51f 48f
6:24 5 6 mph 1018.5mb 51f 48f
6:18 3
mph
1018.4mb 51f 48f
6:12 2 5 mph 1018.3mb 51f 48f
6:06 3 5 mph 1018.3mb 51f 49f
6:00 3 5 mph 1018.3mb 51f 49f
5:36 3 5 mph 1018.1mb 51f 49f
5:30 5 6 mph 1018mb 51f 49f
5:24 3 5 mph 1018mb 51f 49f
5:18 3 5 mph 1017.9mb 50f 49f
5:12 3 6 mph 1017.9mb 50f 49f
5:06 3 6 mph 1017.9mb 50f 49f
5:00 5 6 mph 1017.9mb 50f 49f
4:36 3 6 mph 1017.8mb 50f 49f
4:30 3 6 mph 1017.8mb 50f 49f
4:24 3 6 mph 1017.8mb 50f 49f
4:18 3 5 mph 1017.8mb 50f 49f
4:12 3 6 mph 1017.8mb 50f 49f
4:06 5 6 mph 1017.7mb 50f 49f
4:00 5 6 mph 1017.7mb 50f 50f
3:36 3 6 mph 1017.6mb 50f 50f
3:30 3 6 mph 1017.6mb 50f 50f
3:24 5 6 mph 1017.6mb 50f 50f
3:18 6 7 mph 1017.6mb 50f 50f
3:12 3 6 mph 1017.6mb 50f 50f
3:06 3 6 mph 1017.5mb 50f 50f
3:00 5 6 mph 1017.6mb 50f 50f
2:54 6 7 mph 1017.5mb 50f 50f
2:48 5 6 mph 1017.6mb 50f 50f
2:36  -  mph 1017.5mb - -
2:30  -  mph 1017.4mb - -
2:24  -  mph 1017.4mb - -
2:18  -  mph 1017.3mb - -
2:12  -  mph 1017.3mb - -
2:06  -  mph 1017.3mb - -
2:00  -  mph 1017.3mb - -
1:54  -  mph 1017.3mb - -
1:48  -  mph 1017.4mb - -
1:36 3 6 mph 1017.5mb 50f 50f
1:30 5
mph
1017.5mb 50f 50f
1:24 3 5 mph 1017.4mb 50f 50f
1:18 3 5 mph 1017.3mb 50f 50f
1:12 3 5 mph 1017.4mb 50f 50f
1:06 5 6 mph 1017.3mb 50f 50f
1:00 5 6 mph 1017.3mb 50f 50f
12:54 5 6 mph 1017.3mb 50f 51f
12:48 2 3 mph 1017.3mb 50f 51f
12:36 2 3 mph 1017.3mb 50f 51f
12:30 3 5 mph 1017.3mb 50f 51f
12:24 2 3 mph 1017.3mb 50f 51f
12:18 2 5 mph 1017.2mb 50f 51f
12:12 6 8 mph 1017.2mb 50f 51f
12:06 6 8 mph 1017.1mb 50f 51f
12:00 8 10 mph 1017.1mb 50f 51f
Ter 05/26 11:54 8 11 mph 1017.1mb 50f 51f
11:48 9 11 mph 1017mb 51f 52f
11:36 8 10 mph 1017mb 51f 53f
11:30 7 9 mph 1016.9mb 51f 53f
11:24 6 8 mph 1016.9mb 51f 53f
11:18 7 8 mph 1017mb 51f 53f
11:12 7 8 mph 1017.1mb 51f 53f
11:06 6 8 mph 1017mb 51f 53f
11:00 6 10 mph 1017mb 51f 53f
10:54 6 11 mph 1016.9mb 51f 54f
10:48 8 10 mph 1017mb 51f 54f
10:36 5 8 mph 1017mb 51f 55f
10:30 3 5 mph 1017mb 51f 55f
10:24 2
mph
1017.1mb 51f 55f
10:18 2 3 mph 1017mb 51f 55f
10:12 2 3 mph 1017mb 51f 55f
10:06 1 2 mph 1016.9mb 51f 55f
10:00 2 3 mph 1016.8mb 51f 55f
9:54 3 5 mph 1016.7mb 51f 56f
9:48 2 3 mph 1016.8mb 51f 56f
9:36 5 6 mph 1016.7mb 51f 56f
9:30 5 6 mph 1016.6mb 51f 56f
9:24 5 6 mph 1016.6mb 51f 57f
9:18 5 6 mph 1016.4mb 51f 56f
9:12 3 6 mph 1016.4mb 51f 56f
9:06 6 7 mph 1016.4mb 51f 57f
9:00 7 8 mph 1016.3mb 51f 57f
8:54 6 7 mph 1016.4mb 51f 57f
8:48 3 5 mph 1016.4mb 51f 58f
8:36 1 2 mph 1016.5mb 51f 58f
8:30 2 6 mph 1016.5mb 51f 59f
8:24 5 6 mph 1016.5mb 51f 58f
8:18 6 7 mph 1016.5mb 51f 58f
8:12 6 8 mph 1016.5mb 51f 59f
8:06 7 8 mph 1016.5mb 51f 59f
8:00 7 8 mph 1016.5mb 51f 59f
7:54 8 9 mph 1016.5mb 51f 59f
7:48 8 9 mph 1016.5mb 51f 59f
7:36 8 10 mph 1016.5mb 51f 60f
7:30 8 9 mph 1016.5mb 51f 60f
7:24 9 10 mph 1016.4mb 51f 60f
7:18 7 9 mph 1016.4mb 52f 60f
7:12 9 10 mph 1016.3mb 52f 60f
7:06 10 11 mph 1016.4mb 52f 60f
7:00 8 9 mph 1016.4mb 52f 60f
6:54 8 9 mph 1016.5mb 52f 60f
6:48 8 10 mph 1016.5mb 51f 60f
6:36 8 10 mph 1016.6mb 51f 60f
6:30 9 11 mph 1016.6mb 51f 60f
6:24 9 11 mph 1016.6mb 51f 60f
6:18 9 10 mph 1016.5mb 51f 61f
6:12 9 11 mph 1016.5mb 51f 61f
6:06 9 11 mph 1016.5mb 51f 62f
6:00 9 10 mph 1016.5mb 51f 62f
5:36 8 9 mph 1016.7mb 51f 62f
5:30 9 10 mph 1016.7mb 51f 62f
5:24 9 10 mph 1016.7mb 51f 61f
5:18 9 13 mph 1016.7mb 51f 62f
5:12 8 10 mph 1016.7mb 51f 63f
5:06 2 5 mph 1016.7mb 51f 63f
5:00  -  3 mph 1016.7mb 51f 62f
4:54 2 5 mph 1016.7mb 51f 61f
4:48 3 6 mph 1016.8mb 51f 59f
4:36 2 3 mph 1016.8mb 51f 61f
4:30 3
mph
1016.9mb 51f 62f
4:24 2 3 mph 1017mb 51f 62f
4:18 2 3 mph 1017.1mb 52f 62f
4:12 3 5 mph 1017.1mb 52f 62f
4:06 2 3 mph 1017.1mb 51f 61f
4:00 3
mph
1017.1mb 51f 61f
3:54 2 3 mph 1017.2mb 51f 61f
3:48 2 6 mph 1017.2mb 50f 61f
3:36 3 5 mph 1017.2mb 50f 60f
3:30 2
mph
1017.3mb 50f 61f
3:24 2
mph
1017.3mb 50f 60f
3:18 2 3 mph 1017.3mb 50f 60f
3:12 3 5 mph 1017.4mb 50f 60f
3:06 3 5 mph 1017.4mb 50f 60f
3:00 3 5 mph 1017.4mb 50f 60f
2:54 3 5 mph 1017.5mb 50f 61f
2:48 3
mph
1017.5mb 50f 61f
2:36 3
mph
1017.6mb 50f 61f
2:30 2 3 mph 1017.6mb 50f 61f
2:24 2 3 mph 1017.7mb 50f 61f
2:18 3 6 mph 1017.7mb 50f 61f
2:12 3 5 mph 1017.8mb 50f 61f
2:06 5 6 mph 1017.8mb 50f 61f
2:00 5 6 mph 1017.8mb 50f 61f
1:54 3 6 mph 1017.9mb 50f 61f
1:48 6 7 mph 1017.9mb 50f 60f
1:36 7 9 mph 1017.9mb 50f 60f
1:30 8 9 mph 1017.9mb 50f 59f
1:24 7 8 mph 1017.9mb 50f 60f
1:18 7 8 mph 1017.9mb 50f 60f
1:12 6 7 mph 1018mb 50f 60f
1:06 7 9 mph 1018mb 50f 60f
1:00 5 6 mph 1018mb 50f 60f
12:54 2 5 mph 1018mb 50f 60f
12:48 2 6 mph 1018.1mb 50f 59f
12:36 5 6 mph 1018.1mb 50f 59f
12:30 3 6 mph 1018.1mb 50f 59f
12:24 5 6 mph 1018.1mb 50f 59f
12:18 5 6 mph 1018.1mb 50f 59f
12:12 5 6 mph 1018.1mb 50f 59f
12:06 5 6 mph 1018mb 50f 58f
12:00 5 6 mph 1018.1mb 50f 57f
11:54 3 5 mph 1018.1mb 50f 57f
11:48 3
mph
1018.1mb 50f 57f
9:36  -  mph 1017.9mb 50f 56f
9:30  -  1 mph 1017.9mb 50f 56f
9:24  -  1 mph 1017.9mb 50f 56f
9:18  -  mph 1017.9mb 50f 56f
9:12  -  1 mph 1017.9mb 50f 56f
9:06  -  1 mph 1017.9mb 50f 56f
9:00  -  1 mph 1018mb 50f 55f
8:54  -  1 mph 1018mb 50f 55f
8:48  -  1 mph 1018.1mb 50f 54f
8:36 1
mph
1018mb 50f 53f
8:30  -  1 mph 1018mb 50f 53f
8:24  -  mph 1018mb 50f 53f
8:18  -  mph 1018mb 50f 53f
8:12  -  mph 1017.9mb 50f 53f
8:06  -  mph 1017.8mb 50f 53f
8:00  -  1 mph 1017.8mb 50f 52f
7:54  -  1 mph 1017.9mb 50f 52f
7:48  -  1 mph 1017.9mb 50f 52f
7:36 2
mph
1017.7mb 50f 51f
7:30 2 3 mph 1017.7mb 50f 51f
7:24 3
mph
1017.7mb 50f 51f
7:18 3 6 mph 1017.7mb 50f 51f
7:12 5 6 mph 1017.6mb 50f 51f
7:06 6
mph
1017.6mb 50f 51f
7:00 5 6 mph 1017.6mb 50f 51f
6:54 5
mph
1017.6mb 50f 51f
6:48 2
mph
1017.6mb 50f 51f
6:36  -  2 mph 1017.6mb 50f 51f
6:30 2
mph
1017.6mb 50f 51f
6:24 1 2 mph 1017.6mb 50f 51f
6:18  -  1 mph 1017.5mb 50f 51f
6:12  -  1 mph 1017.5mb 50f 51f
6:06  -  1 mph 1017.5mb 50f 51f
6:00  -  1 mph 1017.4mb 50f 51f
5:54  -  2 mph 1017.4mb 50f 51f
5:48 1 2 mph 1017.3mb 50f 51f
5:36  -  1 mph 1017.2mb 50f 51f
5:30  -  1 mph 1017.3mb 50f 51f
5:24  -  1 mph 1017.3mb 50f 51f
5:18  -  1 mph 1017.3mb 50f 51f
5:12  -  1 mph 1017.2mb 50f 51f
5:06 1 2 mph 1017.2mb 50f 50f
5:00  -  1 mph 1017.2mb 50f 50f
4:54  -  1 mph 1017.1mb 50f 50f
4:48  -  2 mph 1017.1mb 50f 50f
4:36  -  1 mph 1017mb 50f 51f
4:30  -  1 mph 1017mb 50f 51f
4:24  -  1 mph 1017mb 50f 51f
4:18  -  1 mph 1017mb 50f 51f
4:12  -  1 mph 1017.1mb 50f 51f
4:06  -  1 mph 1017.1mb 50f 51f
4:00 1 2 mph 1017mb 50f 50f
3:54 1 2 mph 1017mb 50f 50f
3:48  -  2 mph 1017.1mb 50f 50f
3:36 2
mph
1017.1mb 50f 50f
3:30 2
mph
1017mb 50f 50f
3:24 2 3 mph 1017.1mb 50f 50f
3:18 1 2 mph 1017.1mb 50f 50f
3:12  -  1 mph 1017mb 50f 51f
3:06  -  mph 1017mb 50f 51f
3:00  -  1 mph 1016.9mb 50f 51f
2:54  -  2 mph 1016.8mb 50f 51f
2:48  -  2 mph 1016.9mb 50f 51f
2:36 1 2 mph 1016.9mb 50f 51f
2:30 1 2 mph 1017mb 50f 51f
2:24  -  1 mph 1017.1mb 50f 51f
2:18  -  1 mph 1017.1mb 50f 51f
2:12  -  mph 1017.1mb 50f 51f
2:06  -  mph 1017.1mb 50f 51f
2:00  -  mph 1017.1mb 50f 51f
1:54  -  1 mph 1017mb 50f 51f
1:48  -  mph 1017mb 50f 51f
1:36 1 2 mph 1016.9mb 50f 51f
1:30  -  1 mph 1016.9mb 50f 51f
1:24  -  1 mph 1016.9mb 50f 51f
1:18  -  1 mph 1016.9mb 50f 51f
1:12 1 2 mph 1016.8mb 50f 51f
1:06  -  1 mph 1016.8mb 50f 51f
1:00  -  2 mph 1016.8mb 50f 51f
12:54  -  2 mph 1016.9mb 50f 51f
12:48  -  1 mph 1016.8mb 50f 51f
12:36 1
mph
1016.8mb 50f 51f
12:30  -  1 mph 1016.7mb 50f 51f
12:24  -  mph 1016.7mb 50f 51f
12:18  -  2 mph 1016.7mb 50f 51f
12:12 2 5 mph 1016.6mb 50f 51f
12:06 2 3 mph 1016.6mb 50f 51f
12:00 2 3 mph 1016.7mb 50f 52f
Seg 05/25 11:54 1 2 mph 1016.7mb 50f 52f
11:48  -  1 mph 1016.6mb 50f 51f
11:36  -  2 mph 1016.6mb 50f 52f
11:30  -  1 mph 1016.6mb 50f 52f
11:24  -  1 mph 1016.6mb 50f 52f
11:18  -  1 mph 1016.5mb 50f 52f
11:12  -  1 mph 1016.6mb 50f 52f
11:06  -  1 mph 1016.6mb 50f 52f
11:00  -  1 mph 1016.6mb 50f 52f
10:54 2
mph
1016.6mb 50f 52f
10:48  -  mph 1016.6mb 50f 52f
10:36  -  1 mph 1016.6mb 50f 52f
10:30 1
mph
1016.6mb 50f 52f
10:24  -  1 mph 1016.6mb 50f 52f
10:18  -  mph 1016.6mb 50f 52f
10:12  -  mph 1016.6mb 50f 52f
10:06  -  mph 1016.6mb 50f 52f
10:00  -  1 mph 1016.6mb 50f 52f
9:54  -  1 mph 1016.6mb 50f 52f
9:48 1 2 mph 1016.6mb 50f 53f
9:36 2 5 mph 1016.5mb 50f 53f
9:30 2 3 mph 1016.3mb 50f 53f
9:24 2 5 mph 1016.3mb 50f 54f
9:18 3 6 mph 1016.3mb 50f 54f
9:12 2 7 mph 1016.3mb 50f 54f
9:06 3 5 mph 1016.3mb 51f 54f
9:00 3 6 mph 1016.2mb 51f 54f
8:54 3 6 mph 1016.1mb 51f 54f
8:48 5 6 mph 1016.1mb 51f 55f
8:36 5 6 mph 1016mb 51f 56f
8:30 6
mph
1016mb 51f 56f
8:24 6 7 mph 1016mb 51f 56f
8:18 5 8 mph 1016.1mb 51f 56f
8:12 5 7 mph 1016.1mb 51f 56f
8:06 3 6 mph 1016.2mb 51f 56f
8:00 7 10 mph 1016.2mb 51f 56f
7:54 7 10 mph 1016.1mb 51f 57f
7:48 7 11 mph 1016mb 51f 57f
7:36 6 7 mph 1015.9mb 51f 57f
7:30 6 8 mph 1015.9mb 51f 57f
7:24 6 8 mph 1015.9mb 51f 57f
7:18 5 9 mph 1015.8mb 51f 57f
7:12 5 7 mph 1015.9mb 51f 57f
7:06 5 9 mph 1015.9mb 51f 57f
7:00 5 8 mph 1015.9mb 51f 57f
6:54 6 9 mph 1015.9mb 51f 57f
6:48 7 9 mph 1015.9mb 51f 57f
6:36 3 7 mph 1016mb 51f 57f
6:30 6 7 mph 1016mb 51f 58f
6:24 6 7 mph 1016mb 51f 58f
6:18 6 7 mph 1016.1mb 51f 57f
6:12 6 7 mph 1016.1mb 51f 57f
6:06 6 8 mph 1016.1mb 51f 58f
6:00 6 7 mph 1016.1mb 51f 58f
5:54 2 6 mph 1016.1mb 51f 58f
5:48 2 3 mph 1016.1mb 51f 58f
5:36 3 5 mph 1016.1mb 51f 58f
5:30 5 7 mph 1016mb 51f 58f
5:24 5 8 mph 1016.1mb 51f 57f
5:18 7 8 mph 1016.1mb 51f 57f
5:12 6 7 mph 1016.2mb 51f 58f
5:06 5 6 mph 1016.2mb 51f 58f
5:00 3 6 mph 1016.3mb 51f 57f
4:54 3 6 mph 1016.4mb 51f 58f
4:48 5 6 mph 1016.4mb 51f 57f
4:36 3 5 mph 1016.3mb 51f 58f
4:30 3 5 mph 1016.4mb 51f 57f
4:24 3 5 mph 1016.5mb 51f 57f
4:18 3 6 mph 1016.5mb 51f 57f
4:12 5 6 mph - - 57f
4:06 5 7 mph - - 56f
4:00 5 7 mph - - 56f
3:54 6 8 mph - - 56f
3:48 5 9 mph 1016.5mb 51f 57f
3:36 3 8 mph 1016.6mb 51f 56f
3:30 6 7 mph 1016.6mb 51f 56f
3:24 6 9 mph 1016.6mb 51f 56f
3:18 6 9 mph 1016.6mb 51f 56f
3:12 5 8 mph 1016.6mb 51f 56f
3:06 6 9 mph 1016.6mb 51f 56f
3:00 7 8 mph 1016.7mb 51f 55f
2:54 5 8 mph 1016.8mb 51f 55f
2:48 6 9 mph 1016.8mb 51f 55f
2:36 6 8 mph 1016.9mb 51f 55f
2:30 3 8 mph 1016.9mb 50f 55f
2:24 5 8 mph 1016.9mb 50f 55f
2:18 5 7 mph 1017mb 50f 55f
2:12 5 6 mph 1017mb 50f 55f
2:06 5 8 mph 1017mb 50f 54f
2:00 5 7 mph 1017mb 50f 54f
1:54 3 6 mph 1017mb 50f 55f
1:48 2 5 mph 1016.9mb 50f 55f
1:36 5 6 mph 1016.8mb 50f 54f
1:30 5 7 mph 1016.8mb 50f 54f
1:24 5 7 mph 1016.8mb 50f 54f
1:18 3 5 mph 1016.9mb 50f 53f
1:12 3 5 mph 1016.9mb 50f 53f
1:06 3 5 mph 1016.9mb 50f 53f
1:00 2 3 mph 1017mb 50f 53f
12:54 3 7 mph 1017mb 50f 53f
12:48 5 8 mph 1017mb 50f 53f
12:36 7 10 mph 1017mb 50f 52f
12:30 10 13 mph 1017mb 50f 52f
12:24 8 10 mph 1017mb 50f 52f
12:18 6 9 mph 1016.9mb 50f 52f
12:12 6 8 mph 1016.9mb 50f 52f
12:06 6 7 mph 1016.9mb 50f 52f
12:00 6 8 mph 1016.8mb 50f 52f
11:54 5 8 mph 1016.8mb 50f 52f
11:48 6 8 mph 1016.7mb 50f 52f
11:36 5 8 mph 1016.6mb 50f 53f
11:30 3 7 mph 1016.6mb 50f 53f
11:24 6 9 mph 1016.7mb 50f 52f
11:18 6 8 mph 1016.6mb 50f 52f
11:12 6 9 mph 1016.5mb 50f 52f
11:06 8 10 mph 1016.5mb 50f 51f
11:00 7 10 mph 1016.5mb 50f 51f
10:54 9 11 mph 1016.5mb 50f 51f
10:48 7 9 mph 1016.4mb 50f 51f
10:36 5 7 mph 1016.4mb 50f 51f
10:30 7 8 mph 1016.5mb 50f 51f
10:24 9 10 mph 1016.5mb 50f 51f
10:18 7 9 mph 1016.5mb 50f 51f
10:12 7 9 mph 1016.5mb 50f 51f
10:06 7 8 mph 1016.4mb 50f 51f
10:00 8 9 mph 1016.4mb 50f 51f
9:54 6 8 mph 1016.3mb 50f 51f
9:48 6 7 mph 1016.2mb 50f 51f
9:36 9 13 mph 1016.1mb 50f 51f
9:30 10 13 mph 1016.1mb 50f 50f
9:24 9 11 mph 1016.1mb 50f 50f
9:18 11 14 mph 1016mb 50f 50f
9:12 10 11 mph 1016.1mb 50f 50f
9:06 9 13 mph 1016.1mb 50f 50f
9:00 9 10 mph 1016.1mb 50f 50f
8:54 9 14 mph 1016.1mb 50f 50f
8:48 10 14 mph 1016mb 50f 50f
8:36 9 13 mph 1016mb 50f 50f
8:30 8 10 mph 1016mb 50f 50f
8:24 9 11 mph 1016mb 50f 50f
8:18 8 9 mph 1016mb 50f 50f
8:12 8 10 mph 1016mb 50f 50f
8:06 8 10 mph 1016mb 50f 50f
8:00 8 13 mph 1015.9mb 50f 50f
7:54 8 10 mph 1015.9mb 50f 50f
7:48 10 13 mph 1015.9mb 50f 50f
7:36 8 11 mph 1015.8mb 50f 50f
7:30 7 9 mph 1015.7mb 50f 50f
7:24 7 10 mph 1015.7mb 50f 50f
7:18 6 8 mph 1015.8mb 50f 50f
7:12 6 9 mph 1015.7mb 50f 50f
7:06 7 8 mph 1015.7mb 50f 50f
7:00 7 8 mph 1015.7mb 50f 50f
6:54 5 7 mph 1015.8mb 50f 50f
6:48 5 7 mph 1015.7mb 50f 50f
6:36 3 7 mph 1015.6mb 50f 50f
6:30 5 6 mph 1015.5mb 50f 50f
6:24 5 7 mph 1015.4mb 50f 50f
6:18 5 6 mph 1015.6mb 50f 50f
6:12 3 7 mph 1015.5mb 50f 50f
6:06 6 8 mph 1015.4mb 50f 50f
6:00 6 8 mph 1015.4mb 50f 50f
5:54 6 7 mph 1015.4mb 50f 50f
5:48 6 8 mph 1015.4mb 50f 50f
5:36 8 10 mph 1015.4mb 50f 49f
5:30 7 11 mph 1015.5mb 50f 50f
5:24 8 13 mph 1015.4mb 50f 49f
5:18 9 13 mph 1015.3mb 50f 49f
5:12 10 14 mph 1015.4mb 50f 49f
5:06 10 13 mph 1015.5mb 50f 49f
5:00 11 14 mph 1015.5mb 50f 49f
4:54 11 14 mph 1015.7mb 50f 49f
4:48 9 11 mph 1015.6mb 50f 49f
4:36 9 15 mph 1015.6mb 50f 49f
4:30 11 14 mph 1015.6mb 50f 49f
4:24 11 14 mph 1015.6mb 50f 49f
4:18 8 13 mph 1015.7mb 50f 49f
4:12 8 11 mph 1015.8mb 50f 49f
4:06 7 9 mph 1015.7mb 50f 49f
4:00 9 11 mph 1015.7mb 50f 49f
3:54 10 14 mph 1015.8mb 50f 49f
3:48 9 14 mph 1015.8mb 50f 49f
3:36 8 10 mph 1015.7mb 50f 50f
3:30 8 11 mph 1015.6mb 50f 50f
3:24 9 11 mph 1015.7mb 50f 50f
3:18 9 11 mph 1015.7mb 50f 50f
3:12 9 11 mph 1015.8mb 50f 50f
3:06 8 10 mph 1015.9mb 50f 50f
3:00 8 10 mph 1015.9mb 50f 50f
2:54 9 13 mph 1015.8mb 50f 50f
2:48 9 11 mph 1015.8mb 50f 50f
2:36 10 13 mph 1015.8mb 50f 51f
2:30 9 13 mph 1015.8mb 50f 51f
2:24 9 10 mph 1015.9mb 50f 51f
2:18 7 9 mph 1015.9mb 50f 51f
2:12 7 9 mph 1015.9mb 50f 51f
2:06 8 9 mph 1015.9mb 50f 51f
2:00 8 9 mph 1015.9mb 50f 51f
1:54 7 10 mph 1015.9mb 50f 51f
1:48 8 10 mph 1015.8mb 50f 52f
1:36 8 9 mph 1015.8mb 50f 52f
1:30 8 10 mph 1015.8mb 50f 52f
1:24 8 10 mph 1015.8mb 50f 52f
1:18 8 10 mph 1015.8mb 50f 52f
1:12 8 9 mph 1015.8mb 50f 52f
1:06 7 10 mph 1015.9mb 50f 52f
1:00 7 10 mph 1015.9mb 50f 52f
12:54 7 10 mph 1015.9mb 50f 52f
12:48 10 13 mph 1015.9mb 50f 52f
12:36 9 11 mph 1016mb 50f 53f
12:30 9 13 mph 1016.1mb 50f 53f
12:24 11 14 mph 1016.1mb 50f 53f
12:18 11 14 mph 1016.1mb 50f 53f
12:12 13 15 mph 1016.1mb 50f 53f
12:06 9 11 mph 1016.2mb 50f 53f
12:00 10 14 mph 1016.1mb 50f 53f
Dom 05/24 11:54 11 14 mph 1016.1mb 50f 53f
11:48 15 18 mph 1016.1mb 50f 53f
11:36 9 11 mph 1016mb 50f 53f
11:30 10 11 mph 1016mb 50f 53f
11:24 8 11 mph 1016mb 50f 53f
11:18 6 8 mph 1016.1mb 50f 53f
11:12 7 9 mph 1016.1mb 50f 53f
11:06 7 9 mph 1016mb 50f 53f
11:00 6 7 mph 1016mb 50f 52f
10:54 6 7 mph 1016.1mb 50f 52f
10:48 5 8 mph 1016.1mb 50f 51f
10:36 6 9 mph 1016mb 50f 51f
10:30 6 8 mph 1015.9mb 50f 51f
10:24 5 6 mph 1015.9mb 50f 50f
10:18 3 6 mph 1016mb 50f 50f
10:12 3 6 mph 1016.2mb 50f 50f
10:06 1 2 mph 1016.2mb 50f 50f
10:00 1 2 mph 1016.3mb 50f 50f
9:54 3 5 mph 1016.3mb 50f 50f
9:48 3
mph
1016.3mb 50f 50f
9:36 2 3 mph 1016.2mb 50f 50f
9:30 3
mph
1016.2mb 50f 50f
9:24 2 3 mph 1016.2mb 50f 51f
9:18 3 5 mph 1016.2mb 50f 51f
9:12 3 5 mph 1016.2mb 50f 51f
9:06 3 5 mph 1016.2mb 50f 52f
9:00 5
mph
1016.1mb 50f 52f
8:54 3 5 mph 1016.1mb 50f 52f
8:48 3 5 mph 1016.2mb 50f 52f
8:36 3 5 mph 1016.2mb 50f 53f
8:30 5 6 mph 1016.2mb 50f 53f
8:24 3 6 mph 1016.2mb 50f 53f
8:18 6 7 mph 1016.3mb 50f 53f
8:12 6 9 mph 1016.3mb 50f 54f
8:06 6 8 mph 1016.4mb 50f 53f
8:00 7 9 mph 1016.4mb 50f 53f
7:54 7 9 mph 1016.4mb 50f 54f
7:48 7 9 mph 1016.4mb 50f 54f
7:36 6 7 mph 1016.5mb 50f 54f
7:30 7 9 mph 1016.5mb 50f 54f
7:24 5 9 mph 1016.5mb 51f 54f
7:18 6 8 mph 1016.5mb 51f 55f
7:12 7 10 mph 1016.5mb 51f 55f
7:06 5 7 mph 1016.5mb 51f 54f
7:00 6 7 mph 1016.6mb 51f 55f
6:54 5 7 mph 1016.7mb 51f 54f
6:48 3 7 mph 1016.8mb 51f 54f
6:36 5 7 mph 1016.7mb 51f 55f
6:30 5 7 mph 1016.8mb 51f 54f
6:24 5 7 mph 1016.8mb 51f 54f
6:18 6 9 mph 1016.8mb 51f 54f
6:12 7 9 mph 1016.9mb 51f 54f
6:06 5 9 mph 1017mb 51f 54f
6:00 7 10 mph 1017.1mb 51f 54f
5:54 10 14 mph 1017.2mb 51f 54f
5:48 8 13 mph 1017.3mb 51f 54f
5:36 9 15 mph 1017.3mb 51f 54f
5:30 8 14 mph 1017.4mb 51f 54f
5:24 6 9 mph 1017.4mb 51f 54f
5:18 7 9 mph 1017.5mb 51f 55f
5:12 6 11 mph 1017.5mb 51f 55f
5:06 7 10 mph 1017.5mb 51f 55f
5:00 7 13 mph 1017.6mb 51f 56f
4:54 7 11 mph 1017.6mb 51f 56f
4:48 6 9 mph 1017.7mb 51f 55f
4:36 7 11 mph 1017.8mb 51f 56f
4:30 6 10 mph 1017.8mb 51f 56f
4:24 7 9 mph 1017.9mb 51f 56f
4:18 7 10 mph 1018mb 51f 55f
4:12 6 8 mph 1018mb 51f 55f
4:06 6 9 mph 1018.1mb 51f 56f
4:00 6 10 mph 1018.2mb 51f 55f
3:54 6 9 mph 1018.2mb 51f 55f
3:48 7 9 mph 1018.3mb 51f 55f
3:36 6 9 mph 1018.5mb 51f 56f
3:30 7 10 mph 1018.5mb 51f 56f
3:24 7 13 mph 1018.5mb 51f 55f
3:18 7 9 mph 1018.5mb 51f 56f
3:12 7 10 mph 1018.6mb 51f 56f
3:06 7 11 mph 1018.6mb 51f 56f
3:00 8 13 mph 1018.7mb 51f 56f
2:54 8 11 mph 1018.7mb 51f 56f
2:48 7 13 mph 1018.8mb 51f 56f
2:36 7 11 mph 1018.8mb 51f 56f
2:30 8 10 mph 1018.9mb 51f 56f
2:24 8 10 mph 1018.8mb 51f 56f
2:18 6 10 mph 1018.9mb 51f 56f
2:12 7 9 mph 1018.9mb 51f 56f
2:06 6 11 mph 1019mb 51f 56f
2:00 7 10 mph 1019.1mb 51f 56f
1:54 6 10 mph 1019.1mb 51f 55f
1:48 6 10 mph 1019.1mb 51f 55f
1:36 7 9 mph 1019.3mb 51f 55f
1:30 6 8 mph 1019.4mb 51f 55f
1:24 5 7 mph 1019.4mb 51f 55f
1:18 6 9 mph 1019.4mb 51f 55f
1:12 6 10 mph 1019.4mb 51f 55f
1:06 6 8 mph 1019.4mb 51f 55f
1:00 6 8 mph 1019.4mb 51f 55f
12:54 5 7 mph 1019.4mb 51f 55f
12:48 6 8 mph 1019.5mb 51f 54f
12:36 5 7 mph 1019.5mb 51f 53f
12:30 5 6 mph 1019.6mb 51f 53f
12:24 6 7 mph 1019.7mb 51f 53f
12:18 6 8 mph 1019.7mb 50f 52f
12:12 7 9 mph 1019.8mb 50f 52f
12:06 6 8 mph 1019.8mb 50f 52f
12:00 7 8 mph 1019.9mb 50f 53f
11:54 6 8 mph 1019.9mb 50f 53f
11:48 6 7 mph 1019.9mb 50f 54f
11:36 5 8 mph 1019.9mb 50f 55f
11:30 5 8 mph 1019.9mb 50f 55f
11:24 5 7 mph 1019.9mb 50f 55f
11:18 3 7 mph 1019.9mb 50f 55f
11:12 5 8 mph 1019.9mb 50f 54f
11:06 3 7 mph 1019.9mb 50f 54f
11:00 3 5 mph 1020mb 50f 54f